Francesco Di Giorgio — LXOI — position and weather

sailwx.info

Track history (hours):
 
Tides and Currents Weather Stations Pressure Air Temp Water Temp Dewpoint Dewpoint Depression Visibility Wind Speed Wind Dir Waves Ship Positions

Francesco Di Giorgio

Last reported at 2017-Oct-19 02:47 UTC. Time now 2017-Oct-19 09:21 UTC.
Position N 40°57' E 028°55'.

Length 95 m; draft 4.6 m.

Type: Other ship. MMSI: 253476000.

Date/timePositionNaut miles runAvg speedWind from/ knotsBaromVisibWave heightAir tempDewpointWater temp
2017-Oct-19 02:47N 40°57' E 028°55'0 0.1
2017-Oct-19 02:30N 40°58' E 028°55'2 4.6
2017-Oct-19 01:59N 40°58' E 028°58'511.0
2017-Oct-19 01:30N 41°03' E 029°02'611.7
2017-Oct-19 01:00N 41°08' E 029°04'510.2
2017-Oct-19 00:30N 41°13' E 029°07'10 2.9
2017-Oct-18 21:09N 41°22' E 029°11'0 0.1
2017-Oct-18 21:00N 41°22' E 029°11'2 3.2
2017-Oct-18 20:30N 41°22' E 029°13'612.1
2017-Oct-18 20:00N 41°23' E 029°21'612.2
2017-Oct-18 19:30N 41°24' E 029°29'612.6
2017-Oct-18 19:00N 41°24' E 029°38'611.9
2017-Oct-18 18:30N 41°25' E 029°46'8112.1
2017-Oct-18 11:48N 41°29' E 031°34'412.1
2017-Oct-18 11:30N 41°29' E 031°39'610.1
2017-Oct-18 10:53N 41°27' E 031°47'  
Track history (hours):
 
Tides and Currents Weather Stations Pressure Air Temp Water Temp Dewpoint Dewpoint Depression Visibility Wind Speed Wind Dir Waves Ship Positions

Francesco Di Giorgio

Last reported at 2017-Oct-19 02:47 UTC. Time now 2017-Oct-19 09:21 UTC.
Position N 40°57' E 028°55'.

Length 95 m; draft 4.6 m.

Type: Other ship. MMSI: 253476000.

Date/timePositionNaut miles runAvg speedWind from/ knotsBaromVisibWave heightAir tempDewpointWater temp
2017-Oct-19 02:47N 40°57' E 028°55'0 0.1
2017-Oct-19 02:30N 40°58' E 028°55'2 4.6
2017-Oct-19 01:59N 40°58' E 028°58'511.0
2017-Oct-19 01:30N 41°03' E 029°02'611.7
2017-Oct-19 01:00N 41°08' E 029°04'510.2
2017-Oct-19 00:30N 41°13' E 029°07'10 2.9
2017-Oct-18 21:09N 41°22' E 029°11'0 0.1
2017-Oct-18 21:00N 41°22' E 029°11'2 3.2
2017-Oct-18 20:30N 41°22' E 029°13'612.1
2017-Oct-18 20:00N 41°23' E 029°21'612.2
2017-Oct-18 19:30N 41°24' E 029°29'612.6
2017-Oct-18 19:00N 41°24' E 029°38'611.9
2017-Oct-18 18:30N 41°25' E 029°46'8112.1
2017-Oct-18 11:48N 41°29' E 031°34'412.1
2017-Oct-18 11:30N 41°29' E 031°39'610.1
2017-Oct-18 10:53N 41°27' E 031°47'  

Dump ship's entire track history